Time;durP1;ratioP1;P1;durP2;ratioP2;P2;SDS_P1;SDS_P2;PMS_P1;PMS_P2;Temp;Humidity;BMP_temperature;BMP_pressure;BME280_temperature;BME280_humidity;BME280_pressure;Samples;Min_cycle;Max_cycle;Signal;HPM_P1;HPM_P2
2021/12/16 00:08:15;;;;;;;3.75;3.60;;;;;;;8.01;100.00;102954.47;4367917;32;20570;-67
2021/12/16 00:10:56;;;;;;;3.80;3.65;;;;;;;7.93;100.00;102954.50;4337063;32;20108;-67
2021/12/16 00:34:57;;;;;;;4.20;4.00;;;;;;;8.06;100.00;102949.19;4352799;32;20321;-66
2021/12/16 00:37:23;;;;;;;6.07;5.78;;;;;;;7.94;100.00;102926.62;4341201;32;20201;-69
2021/12/16 00:39:48;;;;;;;3.72;3.62;;;;;;;7.96;100.00;102949.28;4353374;32;20597;-70
2021/12/16 00:42:34;;;;;;;4.50;4.30;;;;;;;7.82;100.00;102919.72;4357777;32;20078;-72
2021/12/16 00:47:34;;;;;;;5.30;5.10;;;;;;;8.12;100.00;102959.66;4360192;32;20066;-70
2021/12/16 00:50:21;;;;;;;4.60;4.40;;;;;;;8.11;100.00;102956.16;4354931;32;20152;-71
2021/12/16 00:55:46;;;;;;;4.30;4.10;;;;;;;8.11;100.00;102960.53;4345398;32;20175;-71
2021/12/16 00:58:11;;;;;;;4.57;4.28;;;;;;;8.08;100.00;102952.69;4350106;32;20069;-70
2021/12/16 01:00:37;;;;;;;4.20;4.00;;;;;;;8.13;100.00;102962.25;4347526;32;20880;-70
2021/12/16 01:35:07;;;;;;;3.80;3.70;;;;;;;8.06;100.00;102978.87;4354059;32;20080;-70
2021/12/16 01:40:25;;;;;;;4.10;3.90;;;;;;;8.08;100.00;102982.34;4354413;32;20644;-70
2021/12/16 01:50:43;;;;;;;4.10;3.90;;;;;;;7.99;100.00;102970.16;4358762;32;20088;-67
2021/12/16 01:55:46;;;;;;;4.05;3.85;;;;;;;7.98;100.00;102973.66;4353141;32;20076;-67
2021/12/16 01:58:21;;;;;;;4.20;4.00;;;;;;;8.04;100.00;102990.19;4344484;32;20837;-67
2021/12/16 02:03:46;;;;;;;4.10;3.90;;;;;;;7.82;100.00;102977.22;4360059;32;20069;-70
2021/12/16 02:08:48;;;;;;;4.30;4.00;;;;;;;7.88;100.00;102979.81;4351820;32;20132;-72
2021/12/16 02:27:12;;;;;;;4.80;4.60;;;;;;;7.86;100.00;102994.62;4358446;32;20498;-71
2021/12/16 02:33:34;;;;;;;4.62;4.43;;;;;;;6.77;100.00;102817.34;4353556;32;20077;-70
2021/12/16 02:35:30;;;;;;;3.60;3.50;;;;;;;7.78;100.00;102999.03;4352346;32;20666;-70
2021/12/16 02:37:55;;;;;;;3.78;3.65;;;;;;;7.74;100.00;102990.31;4344385;32;20649;-70
2021/12/16 02:40:21;;;;;;;6.00;5.70;;;;;;;7.73;100.00;102996.41;4353071;32;20070;-70
2021/12/16 02:43:01;;;;;;;3.70;3.60;;;;;;;7.57;100.00;102974.69;4347900;32;20344;-70
2021/12/16 02:48:34;;;;;;;4.35;4.15;;;;;;;7.67;100.00;102992.94;4360668;32;20097;-70
2021/12/16 02:51:03;;;;;;;4.20;4.00;;;;;;;7.60;100.00;102994.72;4354459;32;20528;-71
2021/12/16 02:53:28;;;;;;;5.80;5.55;;;;;;;7.65;100.00;103013.00;4347376;32;20151;-73
2021/12/16 02:55:54;;;;;;;4.35;4.15;;;;;;;7.67;100.00;103011.25;4351613;32;20070;-68
2021/12/16 02:58:19;;;;;;;4.62;4.43;;;;;;;7.68;100.00;103006.03;4347620;32;20067;-71
2021/12/16 03:00:48;;;;;;;4.37;4.07;;;;;;;7.62;100.00;103006.03;4347943;32;20602;-73
2021/12/16 03:03:13;;;;;;;4.37;4.18;;;;;;;7.64;100.00;103008.63;4352488;32;20148;-71
2021/12/16 03:05:38;;;;;;;4.20;4.00;;;;;;;7.64;100.00;103014.75;4358485;32;20328;-71
2021/12/16 03:08:05;;;;;;;3.60;3.50;;;;;;;7.61;100.00;103003.44;4346661;32;20066;-72
2021/12/16 03:13:34;;;;;;;4.00;3.80;;;;;;;7.39;100.00;103000.84;4359650;32;20131;-73
2021/12/16 03:21:01;;;;;;;4.45;4.25;;;;;;;7.39;100.00;102996.50;4349830;32;20069;-70
2021/12/16 03:23:40;;;;;;;6.07;5.78;;;;;;;7.34;100.00;102997.41;4346833;32;20081;-71
2021/12/16 03:26:44;;;;;;;4.45;4.05;;;;;;;7.24;100.00;103001.75;4368101;32;20078;-71
2021/12/16 03:39:37;;;;;;;4.97;4.78;;;;;;;7.14;100.00;103013.94;4354239;32;20279;-67
2021/12/16 03:42:02;;;;;;;4.40;4.10;;;;;;;7.17;100.00;103010.47;4346675;32;20591;-68
2021/12/16 03:44:38;;;;;;;5.90;5.60;;;;;;;7.14;100.00;103015.69;4351904;32;20057;-67
2021/12/16 03:47:03;;;;;;;4.45;4.25;;;;;;;7.11;100.00;103013.94;4354323;32;20085;-66
2021/12/16 03:49:29;;;;;;;5.62;5.32;;;;;;;6.69;100.00;102942.59;4353434;32;20686;-67
2021/12/16 03:51:58;;;;;;;4.12;3.92;;;;;;;7.09;100.00;103014.81;4341444;32;20496;-67
2021/12/16 03:54:26;;;;;;;5.95;5.60;;;;;;;7.10;100.00;103019.19;4353626;32;20062;-68
2021/12/16 03:56:52;;;;;;;4.00;3.80;;;;;;;7.13;100.00;103019.16;4343017;32;20856;-66
2021/12/16 03:59:20;;;;;;;4.65;4.45;;;;;;;7.13;100.00;103025.25;4350653;32;20086;-66
2021/12/16 04:01:45;;;;;;;4.28;4.07;;;;;;;7.11;100.00;103031.34;4358231;32;20094;-67
2021/12/16 04:04:11;;;;;;;3.78;3.67;;;;;;;6.84;100.00;102988.72;4352264;32;20080;-67
2021/12/16 04:06:37;;;;;;;5.03;4.72;;;;;;;7.09;100.00;103033.97;4334291;32;20069;-67
2021/12/16 04:09:11;;;;;;;3.67;3.58;;;;;;;7.09;100.00;103028.72;4344414;32;20085;-67
2021/12/16 04:11:41;;;;;;;4.43;4.22;;;;;;;7.11;100.00;103032.22;4337099;32;20770;-66
2021/12/16 04:14:09;;;;;;;3.75;3.65;;;;;;;7.12;100.00;103036.59;4337396;32;20083;-68
2021/12/16 04:16:40;;;;;;;5.47;5.18;;;;;;;7.12;100.00;103039.19;4341424;32;20156;-67
2021/12/16 04:19:11;;;;;;;4.80;4.60;;;;;;;7.10;100.00;103038.31;4348068;32;20407;-66
2021/12/16 04:21:38;;;;;;;4.57;4.37;;;;;;;7.07;100.00;103029.63;4337776;32;20069;-67
2021/12/16 04:24:04;;;;;;;4.70;4.30;;;;;;;7.04;100.00;103032.25;4343035;32;20495;-67
2021/12/16 04:26:30;;;;;;;5.47;5.28;;;;;;;7.00;100.00;103028.75;4342804;32;20130;-66
2021/12/16 04:28:55;;;;;;;3.70;3.60;;;;;;;6.99;100.00;103040.91;4344940;32;20070;-67
2021/12/16 04:31:21;;;;;;;5.55;5.35;;;;;;;6.98;100.00;103038.31;4351296;32;20066;-66
2021/12/16 04:33:46;;;;;;;3.83;3.70;;;;;;;6.98;100.00;103044.41;4327972;32;20899;-67
2021/12/16 04:36:12;;;;;;;3.92;3.72;;;;;;;6.67;100.00;102996.53;4352316;32;20482;-67
2021/12/16 04:38:37;;;;;;;4.28;4.07;;;;;;;6.90;100.00;103037.47;4332334;32;20184;-67
2021/12/16 04:41:04;;;;;;;4.18;3.97;;;;;;;6.88;100.00;103034.84;4337273;32;20062;-68
2021/12/16 04:43:38;;;;;;;5.35;5.15;;;;;;;6.87;100.00;103046.13;4329993;32;20466;-67
2021/12/16 04:46:05;;;;;;;4.37;4.18;;;;;;;6.77;100.00;103032.19;4337800;32;20208;-66
2021/12/16 04:48:31;;;;;;;5.97;5.68;;;;;;;6.84;100.00;103051.38;4336119;32;20074;-67
2021/12/16 04:50:56;;;;;;;3.85;3.65;;;;;;;6.79;100.00;103045.25;4373816;32;20466;-67
2021/12/16 04:53:21;;;;;;;5.05;4.85;;;;;;;6.73;100.00;103046.09;4356589;32;20587;-66
2021/12/16 04:55:47;;;;;;;3.92;3.72;;;;;;;6.65;100.00;103047.84;4342617;32;20171;-67
2021/12/16 04:58:12;;;;;;;4.30;4.05;;;;;;;6.61;100.00;103051.31;4355675;32;20070;-67
2021/12/16 05:00:38;;;;;;;4.10;3.90;;;;;;;6.61;100.00;103055.66;4345625;32;20088;-67
2021/12/16 05:03:03;;;;;;;3.70;3.60;;;;;;;6.58;100.00;103053.94;4354597;32;20089;-68
2021/12/16 05:05:28;;;;;;;5.37;5.12;;;;;;;6.55;100.00;103053.91;4353998;32;20063;-71
2021/12/16 05:07:54;;;;;;;5.10;4.80;;;;;;;6.49;100.00;103043.44;4351757;32;20124;-70
2021/12/16 05:10:19;;;;;;;5.80;5.30;;;;;;;6.51;100.00;103050.41;4353963;32;20074;-70
2021/12/16 05:12:49;;;;;;;3.95;3.80;;;;;;;6.46;100.00;103051.28;4350767;32;20605;-71
2021/12/16 05:15:18;;;;;;;3.67;3.58;;;;;;;6.24;100.00;103025.12;4363072;32;20592;-73
2021/12/16 05:17:47;;;;;;;4.10;3.90;;;;;;;6.28;100.00;103044.28;4340251;32;20545;-69
2021/12/16 05:20:17;;;;;;;4.37;4.18;;;;;;;5.11;100.00;102864.84;4345280;32;20066;-70
2021/12/16 05:28:02;;;;;;;4.12;3.92;;;;;;;5.88;100.00;103044.06;4348022;32;20066;-70
2021/12/16 05:30:27;;;;;;;5.30;5.10;;;;;;;4.75;100.00;102871.56;4348877;32;20107;-70
2021/12/16 05:32:52;;;;;;;3.60;3.50;;;;;;;5.75;100.00;103045.72;4342462;32;20138;-69
2021/12/16 05:35:19;;;;;;;4.28;4.10;;;;;;;5.70;100.00;103044.84;4365767;32;20097;-70
2021/12/16 05:37:45;;;;;;;4.12;3.92;;;;;;;5.65;100.00;103049.12;4350091;32;20638;-69
2021/12/16 05:40:11;;;;;;;4.30;4.10;;;;;;;5.59;100.00;103052.56;4352143;32;20216;-71
2021/12/16 05:42:37;;;;;;;5.28;5.03;;;;;;;5.55;100.00;103061.22;4353894;32;20084;-70
2021/12/16 05:45:04;;;;;;;3.65;3.55;;;;;;;5.50;100.00;103062.94;4354353;32;20923;-70
2021/12/16 05:47:30;;;;;;;5.62;5.32;;;;;;;5.39;100.00;103063.75;4350462;32;20596;-70
2021/12/16 05:49:56;;;;;;;4.25;4.05;;;;;;;5.39;100.00;103070.66;4336285;32;20065;-70
2021/12/16 05:52:21;;;;;;;5.70;5.45;;;;;;;5.34;100.00;103078.44;4350018;32;20505;-71
2021/12/16 05:54:46;;;;;;;4.15;3.95;;;;;;;5.32;100.00;103071.47;4368639;32;20497;-70
2021/12/16 05:57:12;;;;;;;4.00;3.80;;;;;;;5.27;100.00;103073.16;4345034;32;20081;-69
2021/12/16 05:59:38;;;;;;;5.12;4.82;;;;;;;5.24;100.00;103078.38;4364258;32;20535;-70
2021/12/16 06:02:03;;;;;;;3.37;3.28;;;;;;;5.18;100.00;103087.84;4363920;32;20530;-70
2021/12/16 06:04:28;;;;;;;4.40;4.20;;;;;;;5.13;100.00;103084.34;4353125;32;20085;-71
2021/12/16 06:06:54;;;;;;;4.35;4.15;;;;;;;5.10;100.00;103099.06;4346709;32;20074;-70
2021/12/16 06:09:20;;;;;;;5.95;5.45;;;;;;;5.06;100.00;103105.09;4337864;32;20887;-68
2021/12/16 06:11:47;;;;;;;3.72;3.62;;;;;;;5.03;100.00;103105.06;4352195;32;20073;-71
2021/12/16 06:14:27;;;;;;;5.45;5.05;;;;;;;5.04;100.00;103112.88;4349952;32;20172;-70
2021/12/16 06:22:54;;;;;;;5.05;4.85;;;;;;;5.12;100.00;103112.97;4353243;32;20519;-67
2021/12/16 06:28:06;;;;;;;3.78;3.60;;;;;;;5.18;100.00;103118.22;4351434;32;20131;-66
2021/12/16 06:30:41;;;;;;;3.87;3.67;;;;;;;5.20;100.00;103119.97;4359273;32;20069;-66
2021/12/16 06:33:08;;;;;;;3.60;3.50;;;;;;;5.23;100.00;103137.34;4348117;32;20493;-68
2021/12/16 06:35:34;;;;;;;3.50;3.40;;;;;;;5.24;100.00;103122.63;4352712;32;20104;-67
2021/12/16 06:37:59;;;;;;;3.80;3.60;;;;;;;5.24;100.00;103120.00;4348006;32;20371;-67
2021/12/16 06:40:24;;;;;;;3.50;3.40;;;;;;;5.24;100.00;103122.63;4336636;32;20583;-66
2021/12/16 06:42:53;;;;;;;4.28;4.07;;;;;;;5.23;100.00;103131.28;4349352;32;20062;-66
2021/12/16 06:45:24;;;;;;;4.75;4.35;;;;;;;5.22;100.00;103133.00;4351294;32;20087;-66
2021/12/16 06:47:55;;;;;;;4.12;3.92;;;;;;;5.22;100.00;103130.41;4357291;32;20356;-66
2021/12/16 06:50:29;;;;;;;6.32;6.03;;;;;;;4.90;100.00;103086.72;4342118;32;20074;-65
2021/12/16 06:52:58;;;;;;;4.28;3.95;;;;;;;5.17;100.00;103125.16;4356003;32;20084;-67
2021/12/16 06:55:35;;;;;;;5.15;4.95;;;;;;;5.24;100.00;103135.63;4340598;32;20058;-73
2021/12/16 06:58:10;;;;;;;3.40;3.30;;;;;;;5.24;100.00;103138.25;4357899;32;20549;-71
2021/12/16 07:00:42;;;;;;;5.40;5.10;;;;;;;5.22;100.00;103135.63;4343441;32;20113;-71
2021/12/16 07:03:17;;;;;;;3.65;3.55;;;;;;;5.19;100.00;103140.78;4350550;32;20077;-71
2021/12/16 07:05:43;;;;;;;4.47;4.07;;;;;;;5.12;100.00;103137.25;4358144;32;20062;-70
2021/12/16 07:08:11;;;;;;;4.12;3.92;;;;;;;4.77;100.00;103096.12;4351961;32;20215;-70
2021/12/16 07:10:37;;;;;;;4.53;4.22;;;;;;;4.98;100.00;103147.53;4362988;32;21565;-70
2021/12/16 07:13:07;;;;;;;4.18;3.92;;;;;;;4.87;100.00;103136.13;4355610;32;20708;-71
2021/12/16 07:15:32;;;;;;;4.00;3.80;;;;;;;4.93;100.00;103150.91;4346203;32;20132;-70
2021/12/16 07:17:57;;;;;;;4.03;3.83;;;;;;;4.91;100.00;103150.94;4352817;32;20089;-70
2021/12/16 07:20:28;;;;;;;5.40;5.20;;;;;;;4.90;100.00;103161.31;4359577;32;20105;-69
2021/12/16 07:22:54;;;;;;;4.82;4.53;;;;;;;4.88;100.00;103165.63;4362732;32;20076;-68
2021/12/16 07:25:20;;;;;;;5.05;4.78;;;;;;;4.86;100.00;103169.94;4359859;32;20097;-69
2021/12/16 07:27:45;;;;;;;3.80;3.70;;;;;;;4.80;100.00;103171.59;4340343;32;20490;-71
2021/12/16 07:30:14;;;;;;;3.50;3.40;;;;;;;4.73;100.00;103169.81;4360426;32;20315;-70
2021/12/16 07:32:39;;;;;;;3.65;3.55;;;;;;;4.81;100.00;103190.69;4349658;32;20065;-71
2021/12/16 07:35:06;;;;;;;4.22;4.03;;;;;;;4.82;100.00;103194.19;4338380;32;20088;-71
2021/12/16 07:37:31;;;;;;;6.62;6.32;;;;;;;4.72;100.00;103211.41;4345302;32;20069;-72
2021/12/16 07:39:56;;;;;;;3.60;3.50;;;;;;;4.69;100.00;103177.53;4345214;32;20088;-69
2021/12/16 07:42:29;;;;;;;6.78;6.25;;;;;;;4.71;100.00;103184.53;4346754;32;20445;-69
2021/12/16 07:44:55;;;;;;;3.40;3.30;;;;;;;4.86;100.00;103208.97;4341910;32;20074;-70
2021/12/16 07:47:20;;;;;;;4.28;4.07;;;;;;;3.74;100.00;103016.91;4351097;32;20105;-69
2021/12/16 07:49:45;;;;;;;4.10;3.90;;;;;;;4.90;100.00;103208.16;4336411;32;20093;-71
2021/12/16 07:52:13;;;;;;;4.53;4.12;;;;;;;4.94;100.00;103213.41;4353368;32;20085;-70
2021/12/16 07:54:39;;;;;;;4.32;4.12;;;;;;;5.00;100.00;103225.63;4342031;32;20108;-72
2021/12/16 07:57:05;;;;;;;3.80;3.60;;;;;;;5.05;100.00;103218.75;4335409;32;20619;-72
2021/12/16 07:59:30;;;;;;;5.15;4.95;;;;;;;4.64;100.00;103150.59;4345686;32;20077;-70
2021/12/16 08:01:56;;;;;;;3.70;3.60;;;;;;;5.11;100.00;103230.94;4359942;32;20069;-69
2021/12/16 08:04:27;;;;;;;5.80;5.50;;;;;;;5.06;100.00;103233.50;4350127;32;20078;-72
2021/12/16 08:06:52;;;;;;;3.70;3.60;;;;;;;5.11;100.00;103220.53;4336488;32;20658;-72
2021/12/16 08:09:18;;;;;;;4.70;4.40;;;;;;;5.15;100.00;103227.50;4355367;32;20089;-70
2021/12/16 08:11:43;;;;;;;3.62;3.53;;;;;;;5.19;100.00;103237.09;4362424;32;20171;-71
2021/12/16 08:14:09;;;;;;;4.00;3.80;;;;;;;5.24;100.00;103221.53;4352259;32;20343;-72
2021/12/16 08:16:34;;;;;;;4.50;4.30;;;;;;;5.27;100.00;103229.38;4346301;32;20334;-70
2021/12/16 08:19:00;;;;;;;3.90;3.70;;;;;;;5.26;100.00;103238.06;4335862;32;20081;-72
2021/12/16 08:21:28;;;;;;;5.22;5.03;;;;;;;5.29;100.00;103236.37;4339009;32;20719;-72
2021/12/16 08:23:54;;;;;;;4.60;4.32;;;;;;;5.31;100.00;103229.44;4350499;32;20102;-71
2021/12/16 08:26:19;;;;;;;4.80;4.60;;;;;;;5.30;100.00;103242.44;4346228;32;20070;-72
2021/12/16 08:28:45;;;;;;;4.80;4.47;;;;;;;5.13;100.00;103213.59;4341203;32;20089;-71
2021/12/16 08:31:10;;;;;;;4.62;4.28;;;;;;;5.34;100.00;103237.28;4346641;32;20560;-69
2021/12/16 08:33:37;;;;;;;4.78;4.55;;;;;;;5.37;100.00;103257.25;4347395;32;20069;-71
2021/12/16 08:36:04;;;;;;;4.22;4.03;;;;;;;5.54;100.00;103242.69;4345812;32;20152;-70
2021/12/16 08:38:29;;;;;;;4.90;4.70;;;;;;;5.62;100.00;103260.13;4354247;32;20199;-70
2021/12/16 08:41:00;;;;;;;3.97;3.78;;;;;;;5.69;100.00;103251.50;4338477;32;20179;-70
2021/12/16 08:43:26;;;;;;;4.70;4.50;;;;;;;5.76;100.00;103246.38;4367851;32;20228;-71
2021/12/16 08:45:51;;;;;;;3.72;3.62;;;;;;;5.80;100.00;103260.28;4340732;32;20082;-70
2021/12/16 08:48:16;;;;;;;3.85;3.65;;;;;;;5.77;100.00;103247.22;4358240;32;20085;-72
2021/12/16 08:50:45;;;;;;;4.40;4.20;;;;;;;5.88;100.00;103248.19;4331136;32;20069;-71
2021/12/16 08:53:11;;;;;;;4.05;3.85;;;;;;;6.08;100.00;103284.03;4351555;32;20078;-72
2021/12/16 08:55:37;;;;;;;3.70;3.60;;;;;;;6.13;100.00;103264.06;4346747;32;20077;-71
2021/12/16 08:58:03;;;;;;;3.70;3.60;;;;;;;5.20;100.00;103077.47;4368533;32;20081;-70
2021/12/16 09:00:31;;;;;;;6.03;5.72;;;;;;;6.34;100.00;103259.00;4342908;32;21037;-71
2021/12/16 09:02:57;;;;;;;3.58;3.47;;;;;;;6.38;100.00;103262.53;4363854;32;20070;-70
2021/12/16 09:05:23;;;;;;;3.50;3.40;;;;;;;6.36;100.00;103259.91;4350401;32;20077;-72
2021/12/16 09:07:48;;;;;;;5.05;3.87;;;;;;;6.51;100.00;103263.47;4346535;32;20093;-71
2021/12/16 09:10:22;;;;;;;4.20;4.00;;;;;;;6.58;100.00;103273.94;4341464;32;20074;-71
2021/12/16 09:15:14;;;;;;;4.10;3.90;;;;;;;6.66;100.00;103276.59;4343921;32;20668;-72
2021/12/16 09:17:39;;;;;;;3.90;3.75;;;;;;;6.56;100.00;103287.84;4360598;32;20070;-71
2021/12/16 09:20:05;;;;;;;5.07;4.75;;;;;;;6.71;100.00;103287.06;4367150;32;20092;-70
2021/12/16 09:22:31;;;;;;;5.97;5.68;;;;;;;6.75;100.00;103302.75;4345483;32;20094;-71
2021/12/16 09:24:57;;;;;;;4.30;4.10;;;;;;;6.59;100.00;103303.50;4365705;32;20549;-70
2021/12/16 09:27:22;;;;;;;5.40;5.20;;;;;;;6.68;100.00;103290.53;4364499;32;20069;-69
2021/12/16 09:29:47;;;;;;;4.10;3.90;;;;;;;6.73;100.00;103298.38;4370312;32;20595;-70
2021/12/16 09:32:13;;;;;;;3.80;3.67;;;;;;;6.62;100.00;103306.16;4348269;32;20074;-69
2021/12/16 09:34:39;;;;;;;4.82;4.53;;;;;;;6.56;100.00;103308.72;4336976;32;21924;-71
2021/12/16 09:37:04;;;;;;;4.95;4.65;;;;;;;6.66;100.00;103309.66;4343965;32;20183;-70
2021/12/16 09:39:31;;;;;;;5.40;5.10;;;;;;;6.63;100.00;103310.50;4336474;32;20094;-70
2021/12/16 09:41:57;;;;;;;3.90;3.75;;;;;;;6.18;100.00;103237.19;4356966;32;20154;-69
2021/12/16 09:44:23;;;;;;;5.97;5.68;;;;;;;6.76;100.00;103314.06;4351584;32;20081;-70
2021/12/16 09:46:49;;;;;;;4.07;3.92;;;;;;;6.90;100.00;103321.97;4352262;32;20061;-70
2021/12/16 09:49:15;;;;;;;4.90;4.68;;;;;;;7.01;100.00;103319.41;4339843;32;20135;-73
2021/12/16 09:51:41;;;;;;;4.30;4.10;;;;;;;7.00;100.00;103318.56;4356001;32;20067;-71
2021/12/16 09:54:13;;;;;;;3.50;3.40;;;;;;;7.17;100.00;103319.47;4361782;32;20152;-69
2021/12/16 09:56:40;;;;;;;4.37;4.12;;;;;;;7.24;100.00;103319.53;4346596;32;20375;-71
2021/12/16 09:59:07;;;;;;;3.90;3.70;;;;;;;7.29;100.00;103321.28;4362566;32;20346;-71
2021/12/16 10:01:33;;;;;;;5.25;5.05;;;;;;;6.48;100.00;103164.34;4353947;32;20674;-69
2021/12/16 10:04:02;;;;;;;4.00;3.80;;;;;;;7.51;100.00;103316.12;4352213;32;20308;-69
2021/12/16 10:06:27;;;;;;;6.10;5.78;;;;;;;7.61;100.00;103317.87;4353336;32;20069;-71
2021/12/16 10:08:53;;;;;;;4.18;3.97;;;;;;;7.69;100.00;103310.94;4339886;32;20600;-70
2021/12/16 10:11:18;;;;;;;5.12;4.82;;;;;;;7.71;100.00;103310.94;4349477;32;20089;-71
2021/12/16 10:14:01;;;;;;;3.78;3.67;;;;;;;7.50;100.00;103255.16;4346469;32;20058;-70
2021/12/16 10:19:11;;;;;;;3.92;3.72;;;;;;;8.06;100.00;103310.09;4378113;32;20172;-70
2021/12/16 10:21:38;;;;;;;5.65;5.35;;;;;;;8.08;100.00;103314.47;4352869;32;20184;-70
2021/12/16 10:24:04;;;;;;;4.53;4.32;;;;;;;8.08;100.00;103317.09;4353156;32;20079;-72
2021/12/16 10:26:29;;;;;;;6.03;5.72;;;;;;;8.15;100.00;103310.97;4350083;32;20074;-69
2021/12/16 10:28:57;;;;;;;4.57;4.28;;;;;;;8.20;100.00;103300.53;4361769;32;20352;-71
2021/12/16 10:31:24;;;;;;;5.85;5.55;;;;;;;8.29;100.00;103302.25;4345902;32;20116;-69
2021/12/16 10:33:58;;;;;;;5.22;4.93;;;;;;;8.29;100.00;103300.50;4365468;32;20699;-71
2021/12/16 10:36:37;;;;;;;4.40;4.20;;;;;;;8.36;100.00;103294.41;4349954;32;20080;-71
2021/12/16 10:39:06;;;;;;;4.07;3.87;;;;;;;8.39;100.00;103302.25;4355700;32;20176;-70
2021/12/16 10:41:42;;;;;;;5.55;5.18;;;;;;;8.43;100.00;103291.81;4363663;32;20066;-71
2021/12/16 10:44:08;;;;;;;4.15;3.95;;;;;;;8.46;100.00;103297.03;4367544;32;20135;-70
2021/12/16 10:46:39;;;;;;;6.05;5.65;;;;;;;8.48;100.00;103287.44;4364176;32;20150;-69
2021/12/16 10:49:13;;;;;;;4.43;4.22;;;;;;;8.56;100.00;103285.69;4342282;32;20128;-69
2021/12/16 10:51:49;;;;;;;4.50;4.20;;;;;;;8.58;100.00;103283.94;4342698;32;20089;-71
2021/12/16 10:54:18;;;;;;;6.30;6.00;;;;;;;8.72;100.00;103307.44;4358350;32;20101;-72
2021/12/16 10:57:04;;;;;;;4.57;4.37;;;;;;;8.54;100.00;103295.31;4348622;32;20645;-73
2021/12/16 10:59:31;;;;;;;5.75;5.47;;;;;;;8.62;100.00;103298.78;4361198;32;20196;-71
2021/12/16 11:02:08;;;;;;;4.57;4.30;;;;;;;8.35;100.00;103303.12;4364626;32;20064;-70
2021/12/16 11:04:41;;;;;;;8.50;6.05;;;;;;;8.38;100.00;103313.59;4355893;32;20073;-71
2021/12/16 11:07:12;;;;;;;7.85;4.70;;;;;;;8.42;100.00;103308.37;4357628;32;20058;-73
2021/12/16 11:09:41;;;;;;;5.05;4.85;;;;;;;8.37;100.00;103305.75;4363989;32;20089;-71
2021/12/16 11:12:25;;;;;;;4.10;3.90;;;;;;;8.39;100.00;103310.09;4347437;32;20635;-70
2021/12/16 11:14:56;;;;;;;4.57;4.37;;;;;;;8.33;100.00;103311.84;4376816;32;20136;-70
2021/12/16 11:17:24;;;;;;;6.12;5.82;;;;;;;8.32;100.00;103321.47;4350314;32;20080;-71
2021/12/16 11:19:59;;;;;;;4.35;4.15;;;;;;;8.34;100.00;103316.22;4344270;32;20076;-70
2021/12/16 11:22:33;;;;;;;5.75;5.45;;;;;;;8.28;100.00;103324.94;4350297;32;20929;-70
2021/12/16 11:25:11;;;;;;;4.10;3.90;;;;;;;8.23;100.00;103323.19;4341289;32;20782;-70
2021/12/16 11:27:37;;;;;;;5.35;5.15;;;;;;;8.25;100.00;103324.94;4366053;32;22022;-71
2021/12/16 11:30:29;;;;;;;5.03;4.72;;;;;;;8.11;100.00;103295.28;4332373;32;20103;-70
2021/12/16 11:33:02;;;;;;;4.65;4.35;;;;;;;8.25;100.00;103311.00;4351894;32;20062;-71
2021/12/16 11:35:35;;;;;;;7.87;7.30;;;;;;;8.33;100.00;103325.78;4349469;32;20364;-69
2021/12/16 11:38:05;;;;;;;4.95;4.60;;;;;;;8.44;100.00;103322.34;4347824;32;20154;-71
2021/12/16 11:40:55;;;;;;;6.70;6.30;;;;;;;7.67;100.00;103189.84;4356490;32;20858;-71
2021/12/16 11:43:34;;;;;;;5.95;5.65;;;;;;;8.37;100.00;103317.06;4352234;32;20072;-72
2021/12/16 11:46:00;;;;;;;4.60;4.40;;;;;;;8.19;100.00;103290.94;4352533;32;20489;-69
2021/12/16 11:48:35;;;;;;;5.53;5.22;;;;;;;8.37;100.00;103321.44;4353600;32;20153;-70
2021/12/16 11:51:08;;;;;;;4.05;3.90;;;;;;;8.35;100.00;103315.34;4346338;32;20162;-69
2021/12/16 11:53:35;;;;;;;6.45;6.05;;;;;;;8.39;100.00;103319.69;4360859;32;20666;-70
2021/12/16 11:56:01;;;;;;;7.82;5.50;;;;;;;8.39;100.00;103304.84;4359937;32;20085;-70
2021/12/16 11:58:30;;;;;;;6.60;6.20;;;;;;;8.43;100.00;103312.75;4347726;32;20078;-69
2021/12/16 12:00:58;;;;;;;4.22;4.03;;;;;;;8.28;100.00;103304.00;4349230;32;20088;-69
2021/12/16 12:03:23;;;;;;;8.25;5.85;;;;;;;8.23;100.00;103305.75;4333464;32;20092;-70
2021/12/16 12:05:49;;;;;;;5.60;5.15;;;;;;;8.31;100.00;103303.12;4352357;32;20074;-69
2021/12/16 12:08:21;;;;;;;5.18;4.90;;;;;;;8.37;100.00;103306.59;4354361;32;20136;-69
2021/12/16 12:11:10;;;;;;;4.07;3.87;;;;;;;8.14;100.00;103259.56;4368369;32;20070;-69
2021/12/16 12:13:38;;;;;;;5.05;4.75;;;;;;;8.32;100.00;103310.13;4360461;32;20077;-71
2021/12/16 12:16:16;;;;;;;4.75;4.55;;;;;;;8.33;100.00;103309.22;4362654;32;20084;-71
2021/12/16 12:18:55;;;;;;;4.25;3.95;;;;;;;8.33;100.00;103311.84;4352856;32;20120;-72
2021/12/16 12:21:32;;;;;;;5.12;4.72;;;;;;;8.34;100.00;103306.62;4352093;32;20580;-70
2021/12/16 12:24:32;;;;;;;4.95;4.65;;;;;;;8.33;100.00;103307.47;4356246;32;20637;-72
2021/12/16 12:27:04;;;;;;;5.15;4.85;;;;;;;8.36;100.00;103311.88;4370879;32;20089;-71
2021/12/16 12:29:31;;;;;;;5.32;5.10;;;;;;;8.40;100.00;103310.97;4360281;32;20101;-71
2021/12/16 12:32:08;;;;;;;4.50;4.30;;;;;;;8.48;100.00;103301.41;4362868;32;20078;-70
2021/12/16 12:34:34;;;;;;;7.45;6.82;;;;;;;8.37;100.00;103304.00;4356903;32;20085;-71
2021/12/16 12:37:02;;;;;;;4.07;3.87;;;;;;;8.51;100.00;103292.69;4341121;32;20065;-71
2021/12/16 12:39:32;;;;;;;4.90;4.70;;;;;;;8.57;100.00;103298.75;4353581;32;20089;-71
2021/12/16 12:41:58;;;;;;;4.85;4.53;;;;;;;8.65;100.00;103300.50;4365119;32;20468;-72
2021/12/16 12:44:23;;;;;;;5.68;5.47;;;;;;;8.61;100.00;103293.53;4353383;32;20077;-68
2021/12/16 12:46:49;;;;;;;4.72;4.45;;;;;;;8.68;100.00;103290.91;4356916;32;20069;-70
2021/12/16 12:49:16;;;;;;;4.47;4.22;;;;;;;8.69;100.00;103292.62;4352303;32;20070;-71
2021/12/16 12:51:45;;;;;;;6.00;5.53;;;;;;;8.73;100.00;103283.03;4363960;32;20102;-72
2021/12/16 12:54:21;;;;;;;4.85;4.65;;;;;;;8.68;100.00;103275.19;4345602;32;20096;-71
2021/12/16 12:56:46;;;;;;;4.82;4.53;;;;;;;8.82;100.00;103295.22;4354789;32;20835;-70
2021/12/16 12:59:15;;;;;;;4.15;3.95;;;;;;;8.83;100.00;103294.34;4351713;32;20414;-72
2021/12/16 13:01:54;;;;;;;4.70;4.50;;;;;;;8.81;100.00;103301.34;4337607;32;20076;-72
2021/12/16 13:04:52;;;;;;;4.00;3.80;;;;;;;8.84;100.00;103303.94;4364168;32;20524;-71
2021/12/16 13:07:17;;;;;;;4.60;4.40;;;;;;;8.91;100.00;103305.66;4352048;32;20097;-72
2021/12/16 13:09:50;;;;;;;4.60;4.40;;;;;;;8.96;100.00;103312.62;4362368;32;20089;-73
2021/12/16 13:12:43;;;;;;;4.82;4.62;;;;;;;8.96;100.00;103307.41;4341275;32;20078;-75
2021/12/16 13:26:59;;;;;;;4.60;4.40;;;;;;;8.69;100.00;103312.72;4360791;32;20076;-73
2021/12/16 13:32:15;;;;;;;5.50;5.05;;;;;;;8.67;100.00;103309.22;4363707;32;20523;-74
2021/12/16 13:35:09;;;;;;;6.70;5.35;;;;;;;8.73;100.00;103303.97;4343764;32;20761;-73
2021/12/16 13:37:36;;;;;;;5.50;5.20;;;;;;;8.77;100.00;103300.47;4365399;32;20351;-72
2021/12/16 13:40:06;;;;;;;5.43;5.00;;;;;;;8.81;100.00;103306.56;4355761;32;20115;-72
2021/12/16 13:42:45;;;;;;;5.78;5.47;;;;;;;8.72;100.00;103308.34;4362237;32;20078;-73
2021/12/16 13:45:23;;;;;;;3.95;3.78;;;;;;;8.61;100.00;103310.09;4362958;32;20114;-72
2021/12/16 13:48:06;;;;;;;4.95;4.75;;;;;;;8.63;100.00;103308.34;4363792;32;20136;-72
2021/12/16 14:02:15;;;;;;;5.00;4.80;;;;;;;8.64;100.00;103324.91;4376467;32;20117;-73
2021/12/16 14:10:19;;;;;;;4.50;4.30;;;;;;;8.55;100.00;103320.59;4366111;32;20148;-74
2021/12/16 14:16:21;;;;;;;5.10;4.85;;;;;;;8.50;100.00;103332.78;4370401;32;20127;-72
2021/12/16 14:24:59;;;;;;;5.78;5.12;;;;;;;8.59;100.00;103338.03;4364215;32;20089;-72
2021/12/16 14:34:15;;;;;;;4.25;4.05;;;;;;;8.46;100.00;103329.31;4364138;32;20695;-72
2021/12/16 14:36:51;;;;;;;4.50;4.30;;;;;;;8.43;100.00;103334.56;4361985;32;20076;-73
2021/12/16 14:39:44;;;;;;;4.45;4.25;;;;;;;8.46;100.00;103333.66;4358093;32;20097;-73
2021/12/16 14:49:49;;;;;;;4.87;4.60;;;;;;;8.38;100.00;103347.63;4357728;32;20099;-72
2021/12/16 14:52:26;;;;;;;4.95;4.75;;;;;;;8.35;100.00;103334.50;4363022;32;20627;-71
2021/12/16 14:55:09;;;;;;;4.53;4.32;;;;;;;8.34;100.00;103342.41;4350944;32;20188;-72